Terminal Aerodrome Forecast
Issued by NWS Tuscon, AZ

Home | Current Version | Previous Version | Text Only | Print | Product List | Glossary On
Versions: 1 2 3 4 5 6 7 8 9 10 11 12 13 14 15 16 17
000
FTUS45 KTWC 281738
TAFDUG
TAF
KDUG 281738Z 2818/2918 06007KT P6SM SCT070 SCT120
     FM282100 24008KT P6SM VCTS SCT060CB BKN100
      TEMPO 2821/2901 VRB20G35KT 4SM TSRA SCT035 BKN050CB
     FM290100 31007KT P6SM VCSH SCT050 BKN070 BKN100
     FM290600 14007KT P6SM SCT070 SCT110 BKN200
     FM291100 VRB04KT P6SM SCT110 SCT200=

USA.gov is the U.S. government's official web portal to all federal, state and local government web resources and services.